Time;durP1;ratioP1;P1;durP2;ratioP2;P2;SDS_P1;SDS_P2;PMS_P1;PMS_P2;Temp;Humidity;BMP_temperature;BMP_pressure;BME280_temperature;BME280_humidity;BME280_pressure;Samples;Min_cycle;Max_cycle;Signal;HPM_P1;HPM_P2
2023/10/14 00:00:47;;;;;;;11.93;6.97;;;20.20;99.90;;;;;;4975739;28;20233;-70
2023/10/14 00:03:35;;;;;;;10.17;7.57;;;20.20;99.90;;;;;;4976086;28;20274;-70
2023/10/14 00:06:08;;;;;;;12.00;8.17;;;20.20;99.90;;;;;;4974386;28;20209;-70
2023/10/14 00:08:47;;;;;;;14.00;7.93;;;20.10;99.90;;;;;;4975898;28;20173;-69
2023/10/14 00:11:13;;;;;;;12.50;8.27;;;20.10;99.90;;;;;;4976035;28;20184;-70
2023/10/14 00:13:42;;;;;;;13.30;8.23;;;20.10;99.90;;;;;;4975620;28;20212;-71
2023/10/14 00:18:51;;;;;;;16.40;7.23;;;20.00;99.90;;;;;;4975950;28;20189;-71
2023/10/14 00:21:17;;;;;;;10.83;7.40;;;20.10;99.90;;;;;;4975676;28;20292;-72
2023/10/14 00:23:43;;;;;;;11.27;8.27;;;20.10;99.90;;;;;;4975507;28;20260;-71
2023/10/14 00:26:16;;;;;;;14.37;8.03;;;20.10;99.90;;;;;;4975732;28;20233;-71
2023/10/14 00:28:45;;;;;;;11.37;7.73;;;20.10;99.90;;;;;;4975244;28;20170;-73
2023/10/14 00:31:14;;;;;;;12.77;7.00;;;20.00;99.90;;;;;;4975470;28;20240;-70
2023/10/14 00:33:41;;;;;;;12.47;8.03;;;19.50;99.90;;;;;;4974980;28;20261;-71
2023/10/14 00:36:10;;;;;;;16.70;8.13;;;19.10;99.90;;;;;;4975020;28;20185;-70
2023/10/14 00:38:38;;;;;;;13.93;7.73;;;18.70;99.90;;;;;;4975193;28;20174;-71
2023/10/14 00:41:03;;;;;;;11.87;7.93;;;18.40;99.90;;;;;;4975314;28;20193;-71
2023/10/14 00:43:29;;;;;;;15.87;8.40;;;18.20;99.90;;;;;;4975044;28;20172;-70
2023/10/14 00:45:55;;;;;;;13.53;8.17;;;18.10;99.90;;;;;;4973645;28;20213;-71
2023/10/14 00:48:27;;;;;;;13.00;7.67;;;18.00;99.90;;;;;;4974835;28;20173;-70
2023/10/14 00:50:58;;;;;;;11.20;8.13;;;17.90;99.90;;;;;;4975407;28;20190;-70
2023/10/14 00:53:28;;;;;;;9.67;6.90;;;17.90;99.90;;;;;;4973694;28;20232;-69
2023/10/14 00:55:54;;;;;;;12.20;7.10;;;17.90;99.90;;;;;;4974886;28;20224;-70
2023/10/14 00:58:24;;;;;;;10.90;7.00;;;17.90;99.90;;;;;;4975066;28;20200;-69
2023/10/14 01:01:00;;;;;;;8.13;6.37;;;17.90;99.90;;;;;;4973626;28;20259;-70
2023/10/14 01:03:36;;;;;;;10.83;7.30;;;18.00;99.90;;;;;;4975281;28;20173;-70
2023/10/14 01:08:49;;;;;;;10.57;7.03;;;18.20;99.90;;;;;;4974807;28;20200;-72
2023/10/14 01:11:18;;;;;;;13.83;6.57;;;18.30;99.90;;;;;;4974567;28;20197;-69
2023/10/14 01:13:47;;;;;;;12.87;6.60;;;18.50;99.90;;;;;;4974412;28;20181;-71
2023/10/14 01:16:15;;;;;;;13.40;6.77;;;18.50;99.90;;;;;;4972968;28;20212;-70
2023/10/14 01:18:41;;;;;;;12.80;6.17;;;18.60;99.90;;;;;;4974537;28;20541;-69
2023/10/14 01:21:07;;;;;;;11.10;7.00;;;18.70;99.90;;;;;;4974537;28;20198;-70
2023/10/14 01:23:38;;;;;;;8.77;6.23;;;18.80;99.90;;;;;;4974175;28;20176;-69
2023/10/14 01:26:05;;;;;;;10.70;6.70;;;18.80;99.90;;;;;;4974234;28;20193;-69
2023/10/14 01:28:31;;;;;;;7.20;5.60;;;18.80;99.90;;;;;;4974367;28;20178;-69
2023/10/14 01:33:57;;;;;;;7.93;5.63;;;18.60;99.90;;;;;;4973806;28;20646;-70
2023/10/14 01:36:44;;;;;;;11.80;5.90;;;18.50;99.90;;;;;;4972936;28;20257;-70
2023/10/14 01:39:21;;;;;;;14.13;5.87;;;18.20;99.90;;;;;;4973970;28;20264;-70
2023/10/14 01:41:47;;;;;;;11.53;5.70;;;18.00;99.90;;;;;;4974048;28;20707;-72
2023/10/14 01:44:21;;;;;;;7.33;5.27;;;17.80;99.90;;;;;;4973632;28;20190;-70
2023/10/14 01:46:47;;;;;;;7.20;5.17;;;17.60;99.90;;;;;;4972587;28;20689;-70
2023/10/14 01:49:19;;;;;;;6.20;4.50;;;17.50;99.90;;;;;;4974119;28;20208;-71
2023/10/14 01:51:49;;;;;;;5.40;4.50;;;17.30;99.90;;;;;;4954635;28;20202;-70
2023/10/14 01:54:15;;;;;;;5.03;4.53;;;17.20;99.90;;;;;;4954378;29;20162;-71
2023/10/14 01:56:42;;;;;;;7.00;4.80;;;17.10;99.90;;;;;;4954648;28;20189;-71
2023/10/14 01:59:09;;;;;;;5.97;4.97;;;17.00;99.90;;;;;;4955888;28;20173;-71
2023/10/14 02:01:41;;;;;;;10.07;5.43;;;17.00;99.90;;;;;;4955676;28;20318;-71
2023/10/14 02:04:07;;;;;;;10.03;5.50;;;17.00;99.90;;;;;;4955750;28;20175;-71
2023/10/14 02:06:32;;;;;;;7.03;5.27;;;17.00;99.90;;;;;;4955120;28;20281;-71
2023/10/14 02:09:00;;;;;;;8.40;5.30;;;16.90;99.90;;;;;;4955017;28;20202;-70
2023/10/14 02:11:33;;;;;;;13.17;6.50;;;16.80;99.90;;;;;;4956874;28;20204;-72
2023/10/14 02:14:03;;;;;;;8.40;4.87;;;16.80;99.90;;;;;;4973287;28;20232;-72
2023/10/14 02:16:36;;;;;;;3.80;3.50;;;16.60;99.90;;;;;;4972820;28;20178;-75
2023/10/14 02:19:36;;;;;;;3.80;3.00;;;16.40;99.90;;;;;;4973033;28;20174;-73
2023/10/14 02:22:02;;;;;;;3.00;2.70;;;16.20;99.90;;;;;;4973405;28;20170;-72
2023/10/14 02:24:29;;;;;;;2.53;2.30;;;15.80;99.90;;;;;;4973200;28;20169;-72
2023/10/14 02:26:57;;;;;;;2.30;2.20;;;15.60;99.90;;;;;;4973290;28;20241;-71
2023/10/14 02:29:24;;;;;;;2.60;2.40;;;15.30;99.90;;;;;;4973277;28;20170;-71
2023/10/14 02:31:50;;;;;;;2.30;2.10;;;15.00;99.90;;;;;;4973374;28;20256;-71
2023/10/14 02:34:17;;;;;;;2.90;2.20;;;14.90;99.90;;;;;;4972905;28;20215;-73
2023/10/14 02:36:49;;;;;;;2.40;2.20;;;14.80;99.90;;;;;;4973244;28;20576;-71
2023/10/14 02:39:15;;;;;;;2.90;2.70;;;14.60;99.90;;;;;;4972559;28;20169;-72
2023/10/14 02:41:44;;;;;;;3.43;2.27;;;14.40;99.90;;;;;;4973056;28;20227;-72
2023/10/14 02:46:42;;;;;;;2.30;2.20;;;14.40;99.90;;;;;;4972848;28;20248;-73
2023/10/14 02:49:09;;;;;;;2.53;2.33;;;14.30;99.90;;;;;;4973158;28;20534;-75
2023/10/14 02:51:43;;;;;;;2.40;2.30;;;14.30;99.90;;;;;;4972909;28;20236;-74
2023/10/14 02:54:26;;;;;;;2.30;2.20;;;14.20;99.90;;;;;;4971273;28;20549;-74
2023/10/14 02:56:58;;;;;;;2.47;2.27;;;14.20;99.90;;;;;;4972977;28;20646;-76
2023/10/14 02:59:44;;;;;;;2.30;2.20;;;14.20;99.90;;;;;;4972828;28;20177;-73
2023/10/14 03:05:32;;;;;;;2.27;2.10;;;14.20;99.90;;;;;;4972668;28;20538;-74
2023/10/14 03:07:33;;;;;;;3.93;2.90;;;14.30;99.90;;;;;;4968466;28;20280;-74
2023/10/14 03:10:18;;;;;;;2.97;2.77;;;14.30;99.90;;;;;;4972830;28;20645;-74
2023/10/14 03:12:49;;;;;;;4.50;2.57;;;14.30;99.90;;;;;;4972605;28;20665;-74
2023/10/14 03:15:19;;;;;;;2.50;2.40;;;14.30;99.90;;;;;;4972688;28;20174;-74
2023/10/14 03:18:03;;;;;;;2.87;2.73;;;14.30;99.90;;;;;;4972437;28;20502;-73
2023/10/14 03:23:21;;;;;;;2.50;2.40;;;14.30;99.90;;;;;;4972433;28;20215;-75
2023/10/14 03:25:50;;;;;;;3.30;2.50;;;14.30;99.90;;;;;;4972496;28;20201;-75
2023/10/14 03:28:20;;;;;;;3.07;2.87;;;14.30;99.90;;;;;;4972685;28;20166;-73
2023/10/14 03:30:48;;;;;;;3.13;2.70;;;14.20;99.90;;;;;;4974769;28;20599;-72
2023/10/14 03:33:20;;;;;;;3.27;2.93;;;14.10;99.90;;;;;;4976504;28;20179;-73
2023/10/14 03:35:57;;;;;;;3.63;3.30;;;13.90;99.90;;;;;;4957244;28;20755;-73
2023/10/14 03:38:39;;;;;;;4.40;3.23;;;13.70;99.90;;;;;;4956172;28;20638;-73
2023/10/14 03:46:34;;;;;;;4.27;3.90;;;13.30;99.90;;;;;;4956796;28;20201;-73
2023/10/14 03:49:11;;;;;;;8.23;3.50;;;13.20;99.90;;;;;;4965168;28;20186;-74
2023/10/14 03:51:38;;;;;;;5.40;3.30;;;13.10;99.90;;;;;;4976234;28;20325;-72
2023/10/14 03:54:08;;;;;;;4.07;3.67;;;13.10;99.90;;;;;;4975939;28;20180;-72
2023/10/14 03:56:35;;;;;;;3.40;3.10;;;13.10;99.90;;;;;;4975096;28;20668;-72
2023/10/14 03:59:02;;;;;;;9.87;3.63;;;13.10;99.90;;;;;;4976248;28;20484;-73
2023/10/14 04:01:34;;;;;;;6.23;4.03;;;13.00;99.90;;;;;;4975822;28;20193;-72
2023/10/14 04:04:14;;;;;;;9.37;3.93;;;12.70;99.90;;;;;;4976134;28;20177;-74
2023/10/14 04:06:41;;;;;;;9.90;4.33;;;12.50;99.90;;;;;;4975914;28;20300;-72
2023/10/14 04:09:17;;;;;;;12.03;4.37;;;12.40;99.90;;;;;;4975998;28;20173;-73
2023/10/14 04:11:42;;;;;;;9.43;4.60;;;12.30;99.90;;;;;;4975481;28;20197;-72
2023/10/14 04:14:08;;;;;;;11.70;4.07;;;12.30;99.90;;;;;;4975127;28;20181;-71
2023/10/14 04:19:27;;;;;;;10.33;3.67;;;12.20;99.90;;;;;;4975887;28;20520;-72
2023/10/14 04:21:58;;;;;;;11.17;4.10;;;12.30;99.90;;;;;;4975580;28;20208;-72
2023/10/14 04:27:29;;;;;;;11.67;4.30;;;12.30;99.90;;;;;;4975831;28;20209;-72
2023/10/14 04:30:10;;;;;;;17.17;4.93;;;12.30;99.90;;;;;;4975280;28;20229;-72
2023/10/14 04:32:43;;;;;;;14.43;4.53;;;12.30;99.90;;;;;;4975424;28;20176;-71
2023/10/14 04:35:12;;;;;;;11.03;4.07;;;12.20;99.90;;;;;;4975482;28;20172;-71
2023/10/14 04:37:52;;;;;;;19.37;4.63;;;12.20;99.90;;;;;;4975416;28;20595;-72
2023/10/14 04:45:52;;;;;;;20.00;4.50;;;12.30;99.90;;;;;;4964042;28;20233;-71
2023/10/14 04:51:18;;;;;;;15.67;4.80;;;12.20;99.90;;;;;;4955009;28;20578;-71
2023/10/14 04:53:44;;;;;;;14.77;5.33;;;12.10;99.90;;;;;;4955403;28;20178;-71
2023/10/14 04:56:10;;;;;;;9.83;3.80;;;12.20;99.90;;;;;;4955912;28;20257;-71
2023/10/14 04:58:46;;;;;;;10.03;4.13;;;12.20;99.90;;;;;;4967372;28;20260;-71
2023/10/14 05:01:17;;;;;;;5.13;3.73;;;12.20;99.90;;;;;;4975057;28;20242;-72
2023/10/14 05:03:43;;;;;;;12.37;4.63;;;12.20;99.90;;;;;;4974878;28;20201;-70
2023/10/14 05:08:46;;;;;;;12.47;4.40;;;12.20;99.90;;;;;;4975066;28;20273;-72
2023/10/14 05:11:18;;;;;;;5.90;3.90;;;12.10;99.90;;;;;;4974914;28;20189;-72
2023/10/14 05:13:46;;;;;;;12.13;5.47;;;12.10;99.90;;;;;;4974277;28;20209;-71
2023/10/14 05:16:15;;;;;;;14.47;6.63;;;12.10;99.90;;;;;;4974726;28;20170;-70
2023/10/14 05:18:58;;;;;;;10.50;5.33;;;12.10;99.90;;;;;;4974653;28;20173;-70
2023/10/14 05:21:36;;;;;;;11.57;4.77;;;12.10;99.90;;;;;;4974679;28;20200;-72
2023/10/14 05:24:10;;;;;;;13.80;4.47;;;12.10;99.90;;;;;;4974328;28;20520;-72
2023/10/14 05:26:39;;;;;;;9.50;4.50;;;12.00;99.90;;;;;;4974318;28;20205;-74
2023/10/14 05:29:16;;;;;;;10.33;4.67;;;12.00;99.90;;;;;;4955592;28;20186;-72
2023/10/14 05:31:46;;;;;;;11.03;5.10;;;11.90;99.90;;;;;;4955050;28;20189;-71
2023/10/14 05:34:13;;;;;;;12.70;4.47;;;11.80;99.90;;;;;;4955083;28;20170;-72
2023/10/14 05:36:39;;;;;;;14.47;5.10;;;11.70;99.90;;;;;;4955209;28;20197;-71
2023/10/14 05:39:06;;;;;;;8.97;5.00;;;11.70;99.90;;;;;;4955222;28;20205;-71
2023/10/14 05:41:33;;;;;;;13.90;5.63;;;11.60;99.90;;;;;;4956912;28;20705;-71
2023/10/14 05:43:59;;;;;;;6.43;3.80;;;11.60;99.90;;;;;;4973986;28;20584;-71
2023/10/14 05:46:25;;;;;;;17.37;7.70;;;11.60;99.90;;;;;;4972630;28;20678;-71
2023/10/14 05:48:53;;;;;;;10.80;6.00;;;11.60;99.90;;;;;;4974087;28;20173;-71
2023/10/14 05:51:19;;;;;;;10.70;4.47;;;11.50;99.90;;;;;;4972696;28;20649;-71
2023/10/14 05:53:46;;;;;;;8.67;5.40;;;11.50;99.90;;;;;;4973030;28;20169;-72
2023/10/14 05:56:15;;;;;;;8.90;4.60;;;11.50;99.90;;;;;;4973608;28;20699;-72
2023/10/14 05:58:41;;;;;;;10.30;4.67;;;11.50;99.90;;;;;;4973650;28;20181;-73
2023/10/14 06:01:13;;;;;;;11.63;4.83;;;11.50;99.90;;;;;;4973432;28;20244;-71
2023/10/14 06:03:40;;;;;;;12.37;5.20;;;11.40;99.90;;;;;;4973475;28;20252;-72
2023/10/14 06:06:09;;;;;;;11.70;4.37;;;11.40;99.90;;;;;;4973550;28;20209;-72
2023/10/14 06:08:39;;;;;;;18.87;5.10;;;11.50;99.90;;;;;;4973898;28;20264;-71
2023/10/14 06:11:05;;;;;;;11.13;4.90;;;11.50;99.90;;;;;;4973519;28;20194;-72
2023/10/14 06:13:35;;;;;;;12.00;4.37;;;11.50;99.90;;;;;;4973147;28;20184;-70
2023/10/14 06:16:11;;;;;;;9.43;4.60;;;11.50;99.90;;;;;;4973519;28;20547;-71
2023/10/14 06:18:38;;;;;;;10.50;4.43;;;11.50;99.90;;;;;;4973828;28;20185;-71
2023/10/14 06:21:06;;;;;;;10.70;4.23;;;11.50;99.90;;;;;;4973403;28;20252;-71
2023/10/14 06:23:32;;;;;;;12.13;4.20;;;11.50;99.90;;;;;;4971741;28;20181;-72
2023/10/14 06:25:58;;;;;;;10.47;4.50;;;11.50;99.90;;;;;;4973205;28;20272;-71
2023/10/14 06:28:24;;;;;;;13.80;5.47;;;11.50;99.90;;;;;;4972870;28;20646;-73
2023/10/14 06:30:50;;;;;;;6.50;4.00;;;11.50;99.90;;;;;;4973106;28;20201;-72
2023/10/14 06:33:16;;;;;;;10.63;4.10;;;11.50;99.90;;;;;;4972707;28;20572;-72
2023/10/14 06:35:46;;;;;;;9.97;5.00;;;11.50;99.90;;;;;;4972787;28;20212;-70
2023/10/14 06:38:17;;;;;;;11.20;4.70;;;11.50;99.90;;;;;;4972993;28;20181;-71
2023/10/14 06:40:52;;;;;;;8.20;4.77;;;11.50;99.90;;;;;;4972785;28;20193;-70
2023/10/14 06:43:19;;;;;;;15.57;4.43;;;11.50;99.90;;;;;;4972673;28;20180;-71
2023/10/14 06:45:46;;;;;;;8.60;4.30;;;11.50;99.90;;;;;;4972563;28;20201;-72
2023/10/14 06:48:12;;;;;;;14.33;4.37;;;11.60;99.90;;;;;;4972704;28;20162;-71
2023/10/14 06:50:41;;;;;;;6.33;4.33;;;11.60;99.90;;;;;;4972415;28;20692;-71
2023/10/14 06:53:11;;;;;;;11.37;4.47;;;11.60;99.90;;;;;;4972717;28;20213;-70
2023/10/14 06:55:39;;;;;;;9.23;3.77;;;11.60;99.90;;;;;;4971048;28;20267;-71
2023/10/14 06:58:06;;;;;;;11.47;4.70;;;11.60;99.90;;;;;;4972895;28;20170;-69
2023/10/14 07:00:32;;;;;;;15.07;4.50;;;11.70;99.90;;;;;;4972101;28;20201;-70
2023/10/14 07:02:59;;;;;;;9.50;4.00;;;11.90;99.90;;;;;;4972293;28;20453;-71
2023/10/14 07:05:28;;;;;;;7.80;3.90;;;12.10;99.90;;;;;;4971655;28;20642;-70
2023/10/14 07:07:58;;;;;;;10.97;4.00;;;12.40;99.90;;;;;;4972403;28;20224;-70
2023/10/14 07:10:32;;;;;;;9.10;3.80;;;12.70;99.90;;;;;;4972140;28;20650;-70
2023/10/14 07:12:58;;;;;;;8.27;3.83;;;13.00;99.90;;;;;;4972793;28;20199;-70
2023/10/14 07:15:30;;;;;;;6.90;3.43;;;13.30;99.90;;;;;;4972623;28;20196;-71
2023/10/14 07:17:57;;;;;;;8.37;3.80;;;13.60;99.90;;;;;;4972193;28;20183;-70
2023/10/14 07:20:22;;;;;;;9.33;3.27;;;13.80;99.90;;;;;;4972341;28;20272;-71
2023/10/14 07:22:49;;;;;;;10.67;3.33;;;14.10;99.90;;;;;;4972350;28;20583;-71
2023/10/14 07:25:15;;;;;;;6.20;3.00;;;14.40;99.90;;;;;;4971943;28;20180;-69
2023/10/14 07:27:41;;;;;;;6.83;3.47;;;14.60;99.90;;;;;;4972407;28;20213;-71
2023/10/14 07:30:13;;;;;;;7.63;3.03;;;14.80;99.90;;;;;;4972274;28;20217;-71
2023/10/14 07:32:48;;;;;;;5.00;3.13;;;14.90;99.90;;;;;;4972285;28;20256;-69
2023/10/14 07:35:15;;;;;;;8.03;3.07;;;15.00;99.90;;;;;;4972140;28;20219;-70
2023/10/14 07:37:43;;;;;;;5.90;2.83;;;15.30;99.90;;;;;;4971801;28;20185;-70
2023/10/14 07:40:31;;;;;;;7.43;3.20;;;15.40;99.90;;;;;;4972259;28;20192;-70
2023/10/14 07:43:05;;;;;;;10.17;3.60;;;15.60;99.90;;;;;;4972104;28;20182;-71
2023/10/14 07:45:33;;;;;;;6.87;3.10;;;15.80;99.90;;;;;;4971966;28;20579;-73
2023/10/14 07:48:00;;;;;;;10.93;3.43;;;15.80;99.90;;;;;;4971961;28;20208;-71
2023/10/14 07:50:31;;;;;;;10.30;3.43;;;15.90;99.90;;;;;;4970573;28;20611;-70
2023/10/14 07:53:07;;;;;;;8.60;3.10;;;15.80;99.90;;;;;;4972134;28;20615;-71
2023/10/14 07:55:43;;;;;;;8.13;3.40;;;15.80;99.90;;;;;;4972085;28;20181;-72
2023/10/14 07:58:10;;;;;;;9.67;3.67;;;15.80;99.90;;;;;;4972048;28;20189;-72
2023/10/14 08:00:49;;;;;;;8.10;3.10;;;15.90;99.90;;;;;;4971629;28;20200;-70
2023/10/14 08:03:20;;;;;;;6.53;2.90;;;16.00;99.90;;;;;;4972114;28;20260;-70
2023/10/14 08:05:52;;;;;;;8.33;3.43;;;16.10;99.90;;;;;;4971256;28;20568;-71
2023/10/14 08:08:19;;;;;;;10.53;3.30;;;16.20;99.90;;;;;;4972084;28;20173;-71
2023/10/14 08:10:48;;;;;;;8.60;3.20;;;16.40;99.90;;;;;;4972102;28;20556;-71
2023/10/14 08:13:14;;;;;;;9.27;3.70;;;16.40;99.90;;;;;;4972172;28;20162;-70
2023/10/14 08:15:40;;;;;;;8.83;4.00;;;16.60;99.90;;;;;;4971738;28;20184;-70
2023/10/14 08:18:06;;;;;;;10.47;3.37;;;16.60;99.90;;;;;;4975363;28;20646;-70
2023/10/14 08:20:33;;;;;;;8.47;3.43;;;16.50;99.90;;;;;;4975598;28;20268;-71
2023/10/14 08:23:00;;;;;;;8.93;3.23;;;16.40;99.90;;;;;;4987029;28;20189;-71
2023/10/14 08:25:26;;;;;;;6.87;3.03;;;16.20;99.90;;;;;;4975438;28;20173;-71
2023/10/14 08:27:53;;;;;;;9.03;3.70;;;16.30;99.90;;;;;;4975157;28;20219;-71
2023/10/14 08:30:24;;;;;;;6.77;3.23;;;16.60;99.90;;;;;;4974822;28;20217;-70
2023/10/14 08:32:50;;;;;;;10.30;3.60;;;16.60;99.90;;;;;;4975425;28;20182;-69
2023/10/14 08:35:16;;;;;;;9.57;3.57;;;16.50;99.90;;;;;;4975365;28;20324;-71
2023/10/14 08:37:48;;;;;;;7.17;3.97;;;16.30;99.90;;;;;;4975156;28;20637;-70
2023/10/14 08:40:19;;;;;;;12.07;4.57;;;16.20;99.90;;;;;;4974655;28;20340;-70
2023/10/14 08:43:06;;;;;;;9.13;3.70;;;16.30;99.90;;;;;;4975142;28;20169;-70
2023/10/14 08:45:38;;;;;;;5.40;3.00;;;16.20;99.90;;;;;;4974801;28;20251;-70
2023/10/14 08:48:05;;;;;;;11.80;3.17;;;16.00;99.90;;;;;;4975219;28;20214;-71
2023/10/14 08:50:33;;;;;;;11.17;3.47;;;16.00;99.90;;;;;;4975023;28;20524;-70
2023/10/14 08:53:03;;;;;;;5.57;2.77;;;15.90;99.90;;;;;;4975034;28;20200;-70
2023/10/14 08:55:33;;;;;;;8.63;3.10;;;16.10;99.90;;;;;;4975115;28;20181;-71
2023/10/14 08:58:04;;;;;;;6.30;3.27;;;16.30;99.90;;;;;;4974987;28;20538;-72
2023/10/14 09:00:35;;;;;;;8.73;3.17;;;16.20;99.90;;;;;;4974732;28;20193;-72
2023/10/14 09:03:02;;;;;;;5.03;3.23;;;16.30;99.90;;;;;;4974764;28;20173;-69
2023/10/14 09:05:30;;;;;;;9.97;3.97;;;16.30;99.90;;;;;;4974657;28;20642;-69
2023/10/14 09:07:57;;;;;;;7.13;3.20;;;16.30;99.90;;;;;;4974716;28;20585;-70
2023/10/14 09:10:24;;;;;;;7.73;3.20;;;16.20;99.90;;;;;;4974654;28;20276;-69
2023/10/14 09:12:59;;;;;;;7.13;2.73;;;16.20;99.90;;;;;;4974108;28;20181;-69
2023/10/14 09:15:28;;;;;;;10.40;3.67;;;16.30;99.90;;;;;;4974606;28;20200;-70
2023/10/14 09:17:55;;;;;;;5.27;3.80;;;16.50;99.90;;;;;;4974549;28;20256;-71
2023/10/14 09:20:38;;;;;;;12.53;3.27;;;16.50;99.90;;;;;;4974458;28;20545;-71
2023/10/14 09:23:15;;;;;;;11.93;4.17;;;16.30;99.90;;;;;;4974319;28;20173;-70
2023/10/14 09:25:53;;;;;;;9.97;3.37;;;16.00;99.90;;;;;;4974298;28;20205;-71
2023/10/14 09:28:20;;;;;;;6.77;3.93;;;15.80;99.90;;;;;;4973525;28;20180;-71
2023/10/14 09:30:54;;;;;;;8.63;3.63;;;15.50;99.90;;;;;;4974428;28;20224;-69
2023/10/14 09:33:21;;;;;;;8.63;3.57;;;15.50;99.90;;;;;;4974356;28;20227;-69
2023/10/14 09:35:49;;;;;;;5.60;3.07;;;15.60;99.90;;;;;;4974165;28;20710;-70
2023/10/14 09:38:19;;;;;;;7.93;3.40;;;15.70;99.90;;;;;;4974353;28;20178;-70
2023/10/14 09:40:57;;;;;;;7.70;3.13;;;15.80;99.90;;;;;;4974121;28;20205;-70
2023/10/14 09:43:23;;;;;;;8.07;3.40;;;15.80;99.90;;;;;;4973992;28;20228;-70
2023/10/14 09:45:56;;;;;;;7.93;3.50;;;15.90;99.90;;;;;;4973811;28;20220;-70
2023/10/14 09:48:29;;;;;;;10.10;3.10;;;16.00;99.90;;;;;;4974175;28;20534;-70
2023/10/14 09:50:55;;;;;;;10.43;4.57;;;15.80;99.90;;;;;;4973856;28;20200;-70
2023/10/14 09:53:28;;;;;;;5.27;3.23;;;16.00;99.90;;;;;;4973971;28;20177;-70
2023/10/14 09:56:08;;;;;;;8.30;3.63;;;16.00;99.90;;;;;;4973876;28;20178;-70
2023/10/14 09:58:41;;;;;;;8.20;3.20;;;15.90;99.90;;;;;;4974025;28;20665;-70
2023/10/14 10:01:12;;;;;;;8.83;3.60;;;15.90;99.90;;;;;;4973886;28;20201;-69
2023/10/14 10:03:49;;;;;;;5.53;2.97;;;15.90;99.90;;;;;;4973588;28;20170;-70
2023/10/14 10:06:43;;;;;;;7.13;3.07;;;15.90;99.90;;;;;;4973851;28;20209;-70
2023/10/14 10:09:45;;;;;;;10.00;3.63;;;16.20;99.90;;;;;;4973671;28;20170;-70
2023/10/14 10:12:11;;;;;;;10.30;4.20;;;16.70;99.90;;;;;;4973738;28;20576;-70
2023/10/14 10:14:42;;;;;;;9.70;3.40;;;16.90;99.90;;;;;;4972915;28;20166;-70
2023/10/14 10:17:11;;;;;;;7.27;3.33;;;17.00;99.90;;;;;;4973564;28;20177;-70
2023/10/14 10:20:25;;;;;;;9.60;3.23;;;17.20;99.90;;;;;;4973616;28;20252;-71
2023/10/14 10:22:52;;;;;;;8.90;2.97;;;17.60;99.90;;;;;;4973472;28;20169;-71
2023/10/14 10:25:22;;;;;;;9.13;3.00;;;17.90;99.90;;;;;;4972104;28;20181;-71
2023/10/14 10:27:50;;;;;;;8.20;3.50;;;18.00;99.90;;;;;;4973080;28;20176;-72
2023/10/14 10:30:18;;;;;;;5.40;3.13;;;17.90;99.90;;;;;;4973370;28;20233;-69
2023/10/14 10:32:48;;;;;;;7.77;3.30;;;18.10;99.90;;;;;;4973217;28;20665;-71
2023/10/14 10:35:16;;;;;;;9.70;3.53;;;18.30;99.90;;;;;;4973180;28;20181;-70
2023/10/14 10:37:47;;;;;;;3.47;2.37;;;18.30;99.90;;;;;;4973630;28;20172;-70
2023/10/14 10:40:16;;;;;;;9.30;3.40;;;18.20;99.90;;;;;;4972054;28;20684;-70
2023/10/14 10:42:53;;;;;;;7.30;3.07;;;17.90;99.90;;;;;;4973053;28;20173;-70
2023/10/14 10:45:22;;;;;;;8.13;3.33;;;17.20;99.90;;;;;;4972979;28;20173;-70
2023/10/14 10:47:56;;;;;;;8.03;2.90;;;16.80;99.90;;;;;;4972823;28;20166;-71
2023/10/14 10:50:25;;;;;;;8.53;3.20;;;16.30;99.90;;;;;;4971817;28;20617;-70
2023/10/14 10:53:18;;;;;;;8.10;3.37;;;16.00;99.90;;;;;;4972905;28;20181;-71
2023/10/14 10:55:46;;;;;;;5.83;2.87;;;15.70;99.90;;;;;;4973027;28;20188;-71
2023/10/14 10:58:12;;;;;;;6.80;3.03;;;15.40;99.90;;;;;;4972976;28;20177;-71
2023/10/14 11:00:46;;;;;;;14.23;4.13;;;15.20;99.90;;;;;;4972884;28;20672;-70
2023/10/14 11:03:15;;;;;;;18.97;4.10;;;15.20;99.90;;;;;;4972888;28;20166;-70
2023/10/14 11:05:43;;;;;;;7.40;3.67;;;15.10;99.90;;;;;;4973162;28;20605;-70
2023/10/14 11:08:09;;;;;;;7.17;3.07;;;15.00;99.90;;;;;;4972737;28;20588;-70
2023/10/14 11:10:42;;;;;;;6.00;2.87;;;15.00;99.90;;;;;;4972640;28;20191;-70
2023/10/14 11:13:12;;;;;;;7.40;3.13;;;15.00;99.90;;;;;;4972774;28;20685;-70
2023/10/14 11:15:43;;;;;;;7.57;3.93;;;15.00;99.90;;;;;;4972537;28;20176;-70
2023/10/14 11:18:09;;;;;;;7.13;3.70;;;15.00;99.90;;;;;;4972661;28;20180;-69
2023/10/14 11:20:41;;;;;;;11.20;3.60;;;15.20;99.90;;;;;;4970833;28;20605;-69
2023/10/14 11:23:11;;;;;;;7.17;3.23;;;15.70;99.90;;;;;;4972781;28;20661;-70
2023/10/14 11:25:41;;;;;;;10.63;3.20;;;16.20;99.90;;;;;;4972199;28;20259;-70
2023/10/14 11:28:14;;;;;;;9.07;2.83;;;16.60;99.90;;;;;;4972714;28;20176;-69
2023/10/14 11:30:45;;;;;;;9.83;3.00;;;16.80;99.90;;;;;;4973711;28;20257;-69
2023/10/14 11:33:12;;;;;;;9.33;3.47;;;17.20;99.90;;;;;;4972540;28;20173;-69
2023/10/14 11:35:38;;;;;;;5.93;2.87;;;17.60;99.90;;;;;;4972541;28;20180;-69
2023/10/14 11:38:08;;;;;;;8.27;2.87;;;18.00;99.90;;;;;;4972200;28;20177;-69
2023/10/14 11:40:40;;;;;;;6.23;2.77;;;18.30;99.90;;;;;;4972315;28;20277;-69
2023/10/14 11:43:07;;;;;;;4.97;2.77;;;18.40;99.90;;;;;;4972161;28;20209;-70
2023/10/14 11:45:33;;;;;;;6.03;2.80;;;18.30;99.90;;;;;;4972153;28;20582;-70
2023/10/14 11:48:01;;;;;;;9.73;3.03;;;18.20;99.90;;;;;;4972159;28;20169;-72
2023/10/14 11:50:30;;;;;;;6.93;2.63;;;18.40;99.90;;;;;;4972322;28;20196;-71
2023/10/14 11:52:57;;;;;;;4.87;2.50;;;18.20;99.90;;;;;;4975868;28;20166;-74
2023/10/14 11:55:27;;;;;;;6.17;2.90;;;17.50;99.90;;;;;;4976087;28;20173;-71
2023/10/14 11:57:53;;;;;;;5.20;2.47;;;17.10;99.90;;;;;;4976135;28;20162;-72
2023/10/14 12:00:20;;;;;;;6.30;3.73;;;17.00;99.90;;;;;;4975752;28;20273;-72
2023/10/14 12:02:47;;;;;;;8.20;3.00;;;16.70;99.90;;;;;;4975400;28;20185;-70
2023/10/14 12:05:16;;;;;;;6.60;3.07;;;16.70;99.90;;;;;;4975815;28;20173;-70
2023/10/14 12:07:43;;;;;;;7.63;2.90;;;16.90;99.90;;;;;;4975876;28;20692;-71
2023/10/14 12:10:09;;;;;;;8.23;2.70;;;17.20;99.90;;;;;;4975388;28;20193;-72
2023/10/14 12:12:37;;;;;;;7.90;2.77;;;17.40;99.90;;;;;;4974882;28;20534;-70
2023/10/14 12:15:05;;;;;;;5.53;2.70;;;17.40;99.90;;;;;;4975283;28;20178;-71
2023/10/14 12:17:34;;;;;;;7.57;3.17;;;17.60;99.90;;;;;;4975539;28;20181;-70
2023/10/14 12:20:04;;;;;;;4.37;2.77;;;17.80;99.90;;;;;;4975447;28;20643;-72
2023/10/14 12:22:30;;;;;;;5.87;2.70;;;17.80;99.90;;;;;;4975496;28;20177;-73
2023/10/14 12:24:55;;;;;;;6.67;2.90;;;17.80;99.90;;;;;;4975418;28;20178;-71
2023/10/14 12:27:25;;;;;;;8.87;2.97;;;17.90;99.90;;;;;;4975274;28;20246;-71
2023/10/14 12:29:52;;;;;;;5.70;2.50;;;18.10;99.90;;;;;;4975431;28;20182;-72
2023/10/14 12:32:18;;;;;;;8.47;2.63;;;18.10;99.90;;;;;;4975271;28;20166;-72
2023/10/14 12:34:46;;;;;;;5.07;2.33;;;18.10;99.90;;;;;;4974976;28;20656;-71
2023/10/14 12:37:18;;;;;;;4.20;2.70;;;17.90;99.90;;;;;;4975453;28;20344;-71
2023/10/14 12:40:11;;;;;;;6.00;3.03;;;17.80;99.90;;;;;;4975056;28;20203;-71
2023/10/14 12:42:46;;;;;;;7.87;2.87;;;17.90;99.90;;;;;;4974877;28;20827;-71
2023/10/14 12:45:13;;;;;;;11.67;2.90;;;18.00;99.90;;;;;;4974978;28;20545;-70
2023/10/14 12:47:46;;;;;;;6.57;3.03;;;17.70;99.90;;;;;;4975078;28;20205;-72
2023/10/14 12:50:14;;;;;;;5.27;2.70;;;17.60;99.90;;;;;;4974992;28;20197;-71
2023/10/14 12:52:40;;;;;;;8.17;2.70;;;17.60;99.90;;;;;;4974817;28;20208;-71
2023/10/14 12:55:14;;;;;;;4.93;2.57;;;17.50;99.90;;;;;;4974766;28;20205;-71
2023/10/14 12:57:41;;;;;;;8.40;2.83;;;17.20;99.90;;;;;;4975135;28;20178;-71
2023/10/14 13:00:17;;;;;;;9.87;2.80;;;16.70;99.90;;;;;;4974912;28;20201;-70
2023/10/14 13:02:43;;;;;;;7.63;2.93;;;16.40;99.90;;;;;;4974713;28;20201;-71
2023/10/14 13:05:13;;;;;;;6.30;3.57;;;16.30;99.90;;;;;;4974892;28;20201;-71
2023/10/14 13:07:39;;;;;;;9.67;3.20;;;16.20;99.90;;;;;;4974665;28;20202;-71
2023/10/14 13:10:08;;;;;;;5.30;2.70;;;16.20;99.90;;;;;;4974709;28;20373;-70
2023/10/14 13:12:34;;;;;;;9.00;3.93;;;16.10;99.90;;;;;;4974386;28;20170;-72
2023/10/14 13:15:04;;;;;;;7.90;3.57;;;16.00;99.90;;;;;;4974503;28;20262;-72
2023/10/14 13:17:35;;;;;;;5.70;3.23;;;15.90;99.90;;;;;;4974747;28;20170;-70
2023/10/14 13:20:01;;;;;;;5.60;2.83;;;15.80;99.90;;;;;;4974792;28;20198;-72
2023/10/14 13:22:26;;;;;;;8.03;3.10;;;15.60;99.90;;;;;;4974539;28;20566;-70
2023/10/14 13:24:52;;;;;;;11.37;3.83;;;15.50;99.90;;;;;;4974329;28;20220;-70
2023/10/14 13:27:18;;;;;;;5.03;3.50;;;15.50;99.90;;;;;;4974357;28;20247;-70
2023/10/14 13:29:43;;;;;;;4.17;2.73;;;15.60;99.90;;;;;;4974468;28;20227;-70
2023/10/14 13:32:14;;;;;;;6.33;2.97;;;15.90;99.90;;;;;;4974390;28;20400;-70
2023/10/14 13:34:40;;;;;;;8.13;3.27;;;16.30;99.90;;;;;;4974255;28;20174;-71
2023/10/14 13:37:05;;;;;;;6.47;3.00;;;16.50;99.90;;;;;;4974145;28;20227;-71